Time;durP1;ratioP1;P1;durP2;ratioP2;P2;SDS_P1;SDS_P2;PMS_P1;PMS_P2;Temp;Humidity;BMP_temperature;BMP_pressure;BME280_temperature;BME280_humidity;BME280_pressure;Samples;Min_cycle;Max_cycle;Signal;HPM_P1;HPM_P2
2021/01/10 00:02:16;;;;;;;20.30;11.20;;;2.10;99.90;;;;;;4993908;28;20189;-64
2021/01/10 00:04:41;;;;;;;21.37;10.17;;;2.10;99.90;;;;;;4993133;28;20622;-65
2021/01/10 00:07:08;;;;;;;23.27;10.90;;;2.10;99.90;;;;;;4992265;28;20199;-65
2021/01/10 00:09:33;;;;;;;20.17;10.73;;;2.10;99.90;;;;;;4991376;28;20199;-68
2021/01/10 00:11:59;;;;;;;19.83;10.00;;;2.10;99.90;;;;;;4989633;28;20588;-65
2021/01/10 00:14:24;;;;;;;18.43;10.83;;;2.00;99.90;;;;;;4989796;28;20198;-65
2021/01/10 00:16:50;;;;;;;24.73;10.07;;;2.00;99.90;;;;;;4981625;28;20214;-65
2021/01/10 00:19:16;;;;;;;19.30;9.33;;;2.10;99.90;;;;;;5004283;28;20640;-65
2021/01/10 00:21:41;;;;;;;20.40;10.67;;;2.10;99.90;;;;;;4992671;28;20194;-65
2021/01/10 00:24:07;;;;;;;21.77;11.00;;;2.00;99.90;;;;;;4990426;28;20255;-65
2021/01/10 00:26:36;;;;;;;18.90;10.13;;;2.00;99.90;;;;;;4992932;28;20216;-67
2021/01/10 00:29:08;;;;;;;19.70;10.88;;;2.00;99.90;;;;;;4987369;28;20341;-65
2021/01/10 00:31:35;;;;;;;24.08;10.82;;;2.00;99.90;;;;;;4991507;28;20206;-65
2021/01/10 00:34:01;;;;;;;22.13;11.60;;;1.90;99.90;;;;;;4992326;28;20197;-65
2021/01/10 00:36:35;;;;;;;22.45;11.82;;;1.90;99.90;;;;;;4991646;28;20222;-68
2021/01/10 00:39:03;;;;;;;20.80;10.63;;;1.90;99.90;;;;;;4987962;28;20190;-65
2021/01/10 00:41:36;;;;;;;26.00;12.32;;;1.90;99.90;;;;;;4989365;28;22039;-65
2021/01/10 00:44:03;;;;;;;22.40;11.20;;;1.90;99.90;;;;;;4991032;28;21149;-65
2021/01/10 00:46:29;;;;;;;25.02;11.90;;;1.90;99.90;;;;;;4991292;28;20202;-65
2021/01/10 00:48:55;;;;;;;23.75;11.63;;;1.90;99.90;;;;;;4990140;28;20553;-64
2021/01/10 00:51:21;;;;;;;26.70;12.40;;;1.90;99.90;;;;;;4991928;28;20206;-66
2021/01/10 00:53:46;;;;;;;24.20;11.77;;;1.90;99.90;;;;;;4990266;28;20198;-65
2021/01/10 00:56:12;;;;;;;29.97;13.70;;;2.00;99.90;;;;;;4991688;28;20217;-65
2021/01/10 00:58:37;;;;;;;18.17;9.97;;;2.00;99.90;;;;;;4989067;28;20209;-65
2021/01/10 01:01:03;;;;;;;29.27;12.73;;;2.00;99.90;;;;;;4990180;28;20555;-65
2021/01/10 01:03:29;;;;;;;25.13;11.98;;;2.00;99.90;;;;;;4989237;28;20189;-65
2021/01/10 01:05:55;;;;;;;25.90;11.90;;;2.00;99.90;;;;;;4990431;28;20193;-65
2021/01/10 01:08:20;;;;;;;26.00;11.53;;;2.00;99.90;;;;;;4989900;28;20191;-66
2021/01/10 01:10:47;;;;;;;28.53;12.20;;;2.00;99.90;;;;;;4989316;28;20775;-65
2021/01/10 01:13:13;;;;;;;26.48;11.90;;;2.00;99.90;;;;;;4990521;28;20256;-66
2021/01/10 01:15:42;;;;;;;24.08;12.30;;;2.00;99.90;;;;;;4990377;28;20278;-63
2021/01/10 01:18:08;;;;;;;21.58;12.02;;;2.00;99.90;;;;;;4990040;28;20669;-64
2021/01/10 01:20:35;;;;;;;26.83;12.68;;;1.90;99.90;;;;;;4989738;28;20229;-63
2021/01/10 01:23:02;;;;;;;30.15;12.57;;;1.90;99.90;;;;;;4986289;28;20199;-64
2021/01/10 01:25:27;;;;;;;25.50;11.70;;;1.90;99.90;;;;;;4990116;28;20202;-64
2021/01/10 01:27:53;;;;;;;28.97;11.97;;;1.90;99.90;;;;;;4991210;28;20216;-63
2021/01/10 01:30:19;;;;;;;23.83;12.20;;;2.00;99.90;;;;;;4989926;28;20189;-63
2021/01/10 01:32:44;;;;;;;26.37;12.37;;;2.00;99.90;;;;;;4987716;28;20233;-64
2021/01/10 01:35:11;;;;;;;25.40;12.53;;;2.00;99.90;;;;;;4987935;28;20511;-65
2021/01/10 01:37:36;;;;;;;28.08;12.20;;;2.00;99.90;;;;;;4990307;28;20194;-64
2021/01/10 01:40:06;;;;;;;31.33;11.67;;;2.00;99.90;;;;;;4988670;28;20225;-65
2021/01/10 01:42:31;;;;;;;27.17;12.10;;;2.00;99.90;;;;;;4988334;28;20408;-64
2021/01/10 01:44:57;;;;;;;24.57;11.10;;;2.00;99.90;;;;;;4990066;28;20244;-64
2021/01/10 01:47:23;;;;;;;29.53;13.83;;;2.00;99.90;;;;;;4988772;28;20274;-64
2021/01/10 01:49:49;;;;;;;26.40;11.90;;;2.00;99.90;;;;;;4989982;28;20187;-64
2021/01/10 01:52:15;;;;;;;26.60;13.00;;;1.90;99.90;;;;;;4990762;28;20523;-64
2021/01/10 01:54:41;;;;;;;28.67;11.47;;;1.90;99.90;;;;;;4989206;28;20463;-64
2021/01/10 01:57:07;;;;;;;26.15;12.43;;;1.90;99.90;;;;;;4990184;28;20427;-64
2021/01/10 01:59:33;;;;;;;25.77;11.10;;;1.90;99.90;;;;;;4989126;28;20525;-67
2021/01/10 02:01:58;;;;;;;27.80;11.43;;;2.00;99.90;;;;;;4988403;28;20276;-65
2021/01/10 02:04:34;;;;;;;25.10;11.87;;;1.90;99.90;;;;;;4990030;28;20194;-65
2021/01/10 02:07:13;;;;;;;22.17;10.65;;;2.00;99.90;;;;;;4988864;28;20551;-65
2021/01/10 02:09:56;;;;;;;23.92;11.80;;;1.90;99.90;;;;;;4989709;28;20183;-65
2021/01/10 02:12:23;;;;;;;22.20;10.55;;;1.90;99.90;;;;;;4989462;28;20231;-64
2021/01/10 02:15:12;;;;;;;20.90;12.73;;;1.90;99.90;;;;;;4988150;28;20179;-65
2021/01/10 02:17:41;;;;;;;22.80;11.68;;;1.90;99.90;;;;;;4989766;28;20190;-64
2021/01/10 02:20:27;;;;;;;22.15;10.98;;;1.90;99.90;;;;;;4988784;28;20269;-65
2021/01/10 02:23:01;;;;;;;22.75;10.52;;;1.90;99.90;;;;;;4989978;28;20284;-65
2021/01/10 02:25:28;;;;;;;22.27;10.48;;;2.00;99.90;;;;;;4990597;28;20691;-65
2021/01/10 02:27:54;;;;;;;20.08;10.98;;;2.00;99.90;;;;;;4989842;28;20508;-65
2021/01/10 02:30:21;;;;;;;21.98;10.88;;;2.00;99.90;;;;;;4989378;28;20183;-65
2021/01/10 02:32:52;;;;;;;20.23;10.07;;;2.00;99.90;;;;;;4988855;28;20226;-65
2021/01/10 02:35:18;;;;;;;21.20;10.80;;;1.90;99.90;;;;;;4987495;28;20695;-65
2021/01/10 02:38:11;;;;;;;22.80;11.40;;;2.00;99.90;;;;;;4987152;28;20179;-64
2021/01/10 02:40:56;;;;;;;25.77;10.55;;;2.00;99.90;;;;;;4988289;28;20242;-64
2021/01/10 02:43:26;;;;;;;17.50;10.02;;;2.10;99.90;;;;;;4983036;28;20268;-65
2021/01/10 02:45:57;;;;;;;21.88;10.25;;;2.10;99.90;;;;;;4983243;28;20657;-65
2021/01/10 02:48:23;;;;;;;19.45;10.63;;;2.10;99.90;;;;;;4989751;28;20237;-65
2021/01/10 02:50:49;;;;;;;22.70;10.90;;;2.10;99.90;;;;;;4988274;28;20185;-65
2021/01/10 02:53:14;;;;;;;22.23;11.23;;;2.10;99.90;;;;;;4988469;28;20499;-65
2021/01/10 02:55:40;;;;;;;24.33;11.50;;;2.10;99.90;;;;;;4990021;28;20582;-65
2021/01/10 02:58:19;;;;;;;25.00;10.93;;;2.10;99.90;;;;;;4987696;28;20742;-65
2021/01/10 03:00:48;;;;;;;18.00;10.27;;;2.10;99.90;;;;;;4988172;28;20441;-64
2021/01/10 03:03:14;;;;;;;21.10;10.48;;;2.10;99.90;;;;;;4987922;28;20566;-65
2021/01/10 03:05:41;;;;;;;23.58;10.95;;;2.10;99.90;;;;;;4988569;28;20213;-65
2021/01/10 03:08:07;;;;;;;22.38;10.32;;;2.00;99.90;;;;;;4987567;28;20191;-66
2021/01/10 03:10:33;;;;;;;28.67;11.57;;;2.10;99.90;;;;;;4989908;28;20644;-65
2021/01/10 03:12:58;;;;;;;21.20;10.20;;;2.10;99.90;;;;;;4987897;28;20259;-65
2021/01/10 03:15:24;;;;;;;19.70;10.77;;;2.10;99.90;;;;;;4987996;28;20434;-65
2021/01/10 03:17:51;;;;;;;23.17;10.60;;;2.10;99.90;;;;;;4986188;28;20181;-65
2021/01/10 03:20:18;;;;;;;21.58;10.13;;;2.10;99.90;;;;;;4987922;28;20617;-65
2021/01/10 03:22:45;;;;;;;21.83;11.00;;;2.10;99.90;;;;;;4987962;28;20250;-64
2021/01/10 03:25:17;;;;;;;22.65;10.57;;;2.20;99.90;;;;;;4970660;28;20242;-65
2021/01/10 03:27:42;;;;;;;20.52;10.20;;;2.20;99.90;;;;;;4979049;28;20200;-70
2021/01/10 03:30:11;;;;;;;24.83;10.87;;;2.10;99.90;;;;;;4987419;28;20658;-65
2021/01/10 03:32:37;;;;;;;22.52;10.32;;;2.10;99.90;;;;;;4988644;28;20303;-65
2021/01/10 03:35:05;;;;;;;18.10;10.30;;;2.10;99.90;;;;;;4988450;28;20214;-65
2021/01/10 03:37:31;;;;;;;23.63;11.60;;;2.10;99.90;;;;;;4988707;28;20261;-65
2021/01/10 03:39:57;;;;;;;22.27;10.27;;;2.10;99.90;;;;;;4985074;28;20226;-64
2021/01/10 03:42:22;;;;;;;24.17;11.43;;;2.10;99.90;;;;;;4989353;28;20264;-65
2021/01/10 03:44:48;;;;;;;23.50;11.80;;;2.10;99.90;;;;;;4991624;28;20190;-64
2021/01/10 03:47:14;;;;;;;22.00;11.23;;;2.10;99.90;;;;;;4992500;28;20257;-65
2021/01/10 03:49:40;;;;;;;20.80;11.00;;;2.10;99.90;;;;;;4989239;28;20227;-65
2021/01/10 03:52:05;;;;;;;22.40;11.27;;;2.10;99.90;;;;;;4990439;28;20473;-64
2021/01/10 03:54:31;;;;;;;18.20;9.80;;;2.10;99.90;;;;;;4988810;28;20201;-65
2021/01/10 03:56:57;;;;;;;19.30;10.13;;;2.10;99.90;;;;;;4988558;28;20443;-64
2021/01/10 03:59:22;;;;;;;18.87;11.13;;;2.10;99.90;;;;;;4989342;28;20263;-69
2021/01/10 04:01:48;;;;;;;22.07;11.70;;;2.10;99.90;;;;;;4989137;28;20281;-65
2021/01/10 04:04:13;;;;;;;18.90;10.40;;;2.10;99.90;;;;;;4989149;28;20192;-65
2021/01/10 04:06:39;;;;;;;19.43;11.03;;;2.10;99.90;;;;;;4990981;28;20201;-65
2021/01/10 04:09:05;;;;;;;24.90;11.33;;;2.10;99.90;;;;;;4987785;28;20182;-65
2021/01/10 04:11:30;;;;;;;21.47;10.60;;;2.10;99.90;;;;;;4987417;28;20217;-64
2021/01/10 04:13:56;;;;;;;19.27;10.40;;;2.20;99.90;;;;;;4991213;28;20223;-65
2021/01/10 04:16:21;;;;;;;19.10;9.80;;;2.20;99.90;;;;;;4990539;28;20222;-64
2021/01/10 04:18:47;;;;;;;18.83;9.53;;;2.20;99.90;;;;;;5003908;28;20205;-64
2021/01/10 04:21:13;;;;;;;19.73;10.53;;;2.10;99.90;;;;;;4991254;28;20278;-64
2021/01/10 04:23:38;;;;;;;19.30;10.57;;;2.00;99.90;;;;;;4990776;28;20208;-64
2021/01/10 04:26:04;;;;;;;18.60;10.37;;;2.00;99.90;;;;;;4991944;28;20720;-64
2021/01/10 04:28:30;;;;;;;24.57;11.17;;;2.10;99.90;;;;;;4989753;28;20191;-64
2021/01/10 04:30:56;;;;;;;19.43;10.67;;;2.00;99.90;;;;;;4985613;28;20269;-65
2021/01/10 04:33:23;;;;;;;20.83;10.53;;;2.00;99.90;;;;;;4992256;28;20842;-64
2021/01/10 04:35:49;;;;;;;21.17;10.55;;;2.00;99.90;;;;;;4990960;28;20194;-64
2021/01/10 04:38:15;;;;;;;21.55;10.43;;;2.00;99.90;;;;;;4991098;28;20606;-64
2021/01/10 04:40:41;;;;;;;20.55;10.80;;;2.00;99.90;;;;;;4991750;28;20288;-65
2021/01/10 04:43:07;;;;;;;22.33;10.50;;;2.10;99.90;;;;;;4988220;28;20221;-64
2021/01/10 04:45:33;;;;;;;31.27;17.75;;;2.10;99.90;;;;;;4989717;28;20469;-64
2021/01/10 04:48:00;;;;;;;26.20;13.57;;;2.00;99.90;;;;;;4989602;28;20239;-64
2021/01/10 04:50:26;;;;;;;24.10;13.23;;;2.10;99.90;;;;;;4990233;28;20444;-64
2021/01/10 04:52:53;;;;;;;24.83;11.80;;;2.10;99.90;;;;;;4990479;28;20230;-64
2021/01/10 04:55:20;;;;;;;41.50;29.25;;;2.00;99.90;;;;;;4989788;28;20232;-64
2021/01/10 04:57:49;;;;;;;24.52;12.65;;;2.00;99.90;;;;;;4990982;28;20217;-64
2021/01/10 05:00:17;;;;;;;21.63;10.65;;;2.00;99.90;;;;;;5004500;28;20626;-64
2021/01/10 05:02:47;;;;;;;21.42;10.43;;;2.10;99.90;;;;;;4989753;28;20265;-64
2021/01/10 05:05:14;;;;;;;25.52;11.20;;;2.00;99.90;;;;;;4989780;28;20205;-64
2021/01/10 05:07:42;;;;;;;20.65;11.25;;;2.00;99.90;;;;;;4990649;28;20257;-64
2021/01/10 05:10:09;;;;;;;21.00;10.05;;;2.00;99.90;;;;;;4989834;28;20692;-65
2021/01/10 05:12:34;;;;;;;18.88;11.57;;;2.00;99.90;;;;;;4991381;28;20687;-64
2021/01/10 05:15:00;;;;;;;18.87;10.27;;;2.00;99.90;;;;;;4989864;28;20190;-64
2021/01/10 05:17:26;;;;;;;20.47;10.63;;;2.10;99.90;;;;;;4989945;28;20186;-65
2021/01/10 05:19:52;;;;;;;21.13;10.90;;;2.00;99.90;;;;;;4989219;28;20187;-65
2021/01/10 05:22:20;;;;;;;24.90;12.73;;;2.00;99.90;;;;;;4991417;28;20202;-65
2021/01/10 05:24:48;;;;;;;20.98;10.77;;;2.00;99.90;;;;;;4987339;28;20266;-64
2021/01/10 05:27:14;;;;;;;20.85;10.63;;;2.10;99.90;;;;;;4989523;28;20677;-64
2021/01/10 05:29:45;;;;;;;19.90;10.47;;;2.00;99.90;;;;;;4989232;28;20194;-66
2021/01/10 05:32:11;;;;;;;17.77;11.57;;;2.00;99.90;;;;;;4985099;28;20201;-65
2021/01/10 05:34:37;;;;;;;22.13;11.05;;;2.00;99.90;;;;;;4988666;28;20215;-64
2021/01/10 05:37:15;;;;;;;20.42;10.60;;;2.00;99.90;;;;;;4982734;28;20654;-64
2021/01/10 05:39:45;;;;;;;21.42;11.68;;;1.90;99.90;;;;;;4988075;28;20225;-64
2021/01/10 05:42:12;;;;;;;24.75;11.13;;;1.90;99.90;;;;;;4999116;28;20237;-65
2021/01/10 05:44:44;;;;;;;21.00;11.02;;;2.00;99.90;;;;;;4989272;28;20197;-64
2021/01/10 05:47:12;;;;;;;21.88;11.20;;;1.90;99.90;;;;;;4985752;28;20194;-64
2021/01/10 05:49:52;;;;;;;24.02;10.20;;;1.90;99.90;;;;;;4988475;28;20260;-64
2021/01/10 05:52:18;;;;;;;24.15;11.57;;;1.90;99.90;;;;;;4989069;28;20249;-64
2021/01/10 05:54:45;;;;;;;19.95;11.00;;;1.90;99.90;;;;;;4986252;28;21700;-64
2021/01/10 05:57:16;;;;;;;22.10;11.40;;;1.90;99.90;;;;;;4988892;28;20190;-64
2021/01/10 05:59:45;;;;;;;20.75;9.65;;;1.90;99.90;;;;;;4989321;28;20195;-64
2021/01/10 06:02:11;;;;;;;22.05;11.23;;;1.90;99.90;;;;;;4989241;28;20203;-66
2021/01/10 06:04:36;;;;;;;18.85;10.32;;;2.00;99.90;;;;;;4987507;28;20199;-64
2021/01/10 06:07:03;;;;;;;22.43;11.47;;;2.00;99.90;;;;;;4987575;28;20198;-64
2021/01/10 06:09:43;;;;;;;23.48;11.05;;;2.00;99.90;;;;;;4989540;28;20195;-64
2021/01/10 06:12:24;;;;;;;22.77;11.00;;;1.90;99.90;;;;;;4987408;28;20563;-64
2021/01/10 06:15:13;;;;;;;17.60;9.32;;;1.90;99.90;;;;;;4989473;28;20661;-64
2021/01/10 06:17:49;;;;;;;20.00;11.02;;;1.90;99.90;;;;;;4988838;28;20191;-64
2021/01/10 06:20:34;;;;;;;22.50;10.68;;;1.90;99.90;;;;;;4989078;28;20194;-65
2021/01/10 06:23:01;;;;;;;22.27;11.38;;;1.90;99.90;;;;;;4987255;28;20201;-64
2021/01/10 06:25:30;;;;;;;24.55;11.30;;;1.90;99.90;;;;;;4989701;28;21023;-64
2021/01/10 06:28:19;;;;;;;21.52;11.15;;;1.90;99.90;;;;;;4987337;28;20241;-64
2021/01/10 06:30:54;;;;;;;19.60;9.57;;;1.90;99.90;;;;;;5002012;28;20187;-64
2021/01/10 06:33:32;;;;;;;19.65;10.93;;;1.90;99.90;;;;;;4988999;28;20289;-64
2021/01/10 06:36:06;;;;;;;21.80;11.77;;;1.90;99.90;;;;;;4988940;28;20305;-64
2021/01/10 06:38:37;;;;;;;18.73;10.45;;;2.00;99.90;;;;;;4989031;28;20204;-67
2021/01/10 06:41:25;;;;;;;20.17;10.27;;;2.00;99.90;;;;;;4989287;28;20230;-64
2021/01/10 06:44:04;;;;;;;25.10;10.85;;;2.00;99.90;;;;;;4987791;28;20203;-65
2021/01/10 06:46:30;;;;;;;20.90;11.20;;;2.00;99.90;;;;;;4989238;28;20906;-64
2021/01/10 06:48:56;;;;;;;20.90;10.20;;;2.00;99.90;;;;;;4988817;28;20225;-64
2021/01/10 06:51:22;;;;;;;23.37;11.83;;;2.00;99.90;;;;;;4989857;28;20314;-64
2021/01/10 06:53:49;;;;;;;21.73;10.68;;;1.90;99.90;;;;;;4986587;28;20802;-64
2021/01/10 06:56:15;;;;;;;22.60;10.88;;;1.90;99.90;;;;;;4988966;28;20214;-64
2021/01/10 06:59:17;;;;;;;18.40;10.52;;;2.00;99.90;;;;;;4986961;28;20664;-64
2021/01/10 07:01:48;;;;;;;27.02;11.73;;;2.10;99.90;;;;;;4978990;28;20203;-64
2021/01/10 07:04:15;;;;;;;24.83;11.52;;;2.00;99.90;;;;;;4986650;28;20237;-64
2021/01/10 07:06:45;;;;;;;25.05;11.73;;;2.00;99.90;;;;;;4987687;28;20266;-64
2021/01/10 07:09:11;;;;;;;26.88;12.43;;;2.00;99.90;;;;;;4988862;28;20266;-65
2021/01/10 07:11:37;;;;;;;24.15;11.65;;;2.00;99.90;;;;;;4989102;28;20221;-65
2021/01/10 07:14:06;;;;;;;21.55;12.00;;;2.00;99.90;;;;;;4986725;28;20237;-64
2021/01/10 07:16:33;;;;;;;25.00;11.75;;;2.00;99.90;;;;;;4989542;28;20237;-67
2021/01/10 07:19:03;;;;;;;24.90;12.02;;;2.00;99.90;;;;;;4991890;28;20590;-67
2021/01/10 07:21:32;;;;;;;22.92;11.18;;;2.00;99.90;;;;;;4991313;28;20198;-68
2021/01/10 07:24:13;;;;;;;23.27;11.68;;;2.00;99.90;;;;;;4990555;28;20603;-67
2021/01/10 07:26:44;;;;;;;23.27;13.20;;;2.00;99.90;;;;;;4990804;28;20187;-67
2021/01/10 07:29:41;;;;;;;22.98;12.50;;;2.00;99.90;;;;;;4982864;28;20588;-67
2021/01/10 07:32:07;;;;;;;21.10;11.13;;;2.00;99.90;;;;;;4983148;28;20203;-67
2021/01/10 07:34:35;;;;;;;21.93;11.20;;;2.00;99.90;;;;;;4982809;28;20198;-67
2021/01/10 07:37:03;;;;;;;23.95;11.50;;;2.10;99.90;;;;;;4982125;28;20198;-67
2021/01/10 07:39:32;;;;;;;23.60;11.43;;;2.10;99.90;;;;;;4984037;28;20218;-67
2021/01/10 07:42:12;;;;;;;21.50;11.80;;;2.10;99.90;;;;;;4983122;28;20202;-67
2021/01/10 07:44:48;;;;;;;25.50;12.00;;;2.10;99.90;;;;;;4982874;28;20201;-68
2021/01/10 07:47:15;;;;;;;24.90;12.10;;;2.10;99.90;;;;;;4983131;28;20189;-69
2021/01/10 07:49:53;;;;;;;23.90;12.38;;;2.10;99.90;;;;;;4983994;28;20202;-67
2021/01/10 07:52:41;;;;;;;25.00;12.35;;;2.10;99.90;;;;;;4983221;28;20297;-67
2021/01/10 07:55:18;;;;;;;23.90;12.52;;;2.10;99.90;;;;;;4982736;28;20690;-67
2021/01/10 07:57:45;;;;;;;25.52;10.82;;;2.10;99.90;;;;;;4983635;28;20233;-67
2021/01/10 08:00:16;;;;;;;26.05;12.75;;;2.20;99.90;;;;;;4981959;28;20233;-67
2021/01/10 08:02:46;;;;;;;20.92;12.30;;;2.20;99.90;;;;;;4983408;28;20198;-67
2021/01/10 08:05:17;;;;;;;20.45;11.48;;;2.20;99.90;;;;;;4981943;28;20178;-67
2021/01/10 08:07:51;;;;;;;24.08;11.68;;;2.20;99.90;;;;;;4982069;28;20194;-68
2021/01/10 08:10:17;;;;;;;22.38;11.15;;;2.30;99.90;;;;;;4982260;28;20190;-66
2021/01/10 08:12:43;;;;;;;23.23;11.48;;;2.40;99.90;;;;;;4982546;28;20205;-67
2021/01/10 08:15:11;;;;;;;19.77;11.57;;;2.40;99.90;;;;;;4973141;28;20200;-69
2021/01/10 08:17:37;;;;;;;21.83;11.18;;;2.50;99.90;;;;;;4982989;28;20213;-66
2021/01/10 08:20:05;;;;;;;20.33;10.20;;;2.40;99.90;;;;;;4981569;28;21230;-67
2021/01/10 08:22:32;;;;;;;20.75;10.73;;;2.40;99.90;;;;;;4980432;28;20199;-69
2021/01/10 08:24:57;;;;;;;19.60;11.00;;;2.40;99.90;;;;;;4981819;28;20193;-74
2021/01/10 08:27:24;;;;;;;20.73;10.47;;;2.40;99.90;;;;;;4981563;28;20215;-68
2021/01/10 08:29:51;;;;;;;23.90;11.25;;;2.40;99.90;;;;;;5001012;28;20936;-67
2021/01/10 08:32:18;;;;;;;18.52;10.10;;;2.50;99.90;;;;;;4989269;28;20297;-66
2021/01/10 08:34:52;;;;;;;20.15;11.00;;;2.50;99.90;;;;;;4987623;28;20242;-66
2021/01/10 08:37:22;;;;;;;22.73;11.85;;;2.40;99.90;;;;;;4990670;28;20201;-67
2021/01/10 08:40:04;;;;;;;16.23;9.23;;;2.40;99.90;;;;;;4989688;28;20322;-69
2021/01/10 08:42:30;;;;;;;17.45;10.32;;;2.50;99.90;;;;;;4987697;28;20198;-68
2021/01/10 08:45:15;;;;;;;18.00;9.50;;;2.40;99.90;;;;;;4990645;28;20208;-66
2021/01/10 08:47:42;;;;;;;21.52;9.85;;;2.40;99.90;;;;;;4990639;28;20221;-69
2021/01/10 08:50:09;;;;;;;19.33;10.80;;;2.40;99.90;;;;;;4990282;28;20191;-69
2021/01/10 08:52:35;;;;;;;21.15;9.88;;;2.50;97.40;;;;;;4986198;28;20218;-68
2021/01/10 08:55:01;;;;;;;16.67;10.23;;;2.40;99.10;;;;;;4991810;28;20187;-66
2021/01/10 08:57:27;;;;;;;18.60;9.87;;;2.40;99.90;;;;;;4988838;28;20185;-66
2021/01/10 08:59:56;;;;;;;27.40;15.32;;;2.40;98.50;;;;;;4982889;28;20186;-67
2021/01/10 09:02:26;;;;;;;23.02;11.50;;;2.30;97.20;;;;;;4978621;28;20198;-67
2021/01/10 09:04:52;;;;;;;24.23;11.80;;;2.20;98.50;;;;;;4980957;28;20183;-67
2021/01/10 09:07:24;;;;;;;21.80;11.40;;;2.30;97.10;;;;;;4980995;28;20205;-67
2021/01/10 09:10:06;;;;;;;23.80;11.38;;;2.30;99.90;;;;;;4981760;28;20241;-68
2021/01/10 09:12:49;;;;;;;19.27;10.88;;;2.30;99.90;;;;;;4981860;28;20210;-68
2021/01/10 09:15:32;;;;;;;23.48;11.88;;;2.20;96.50;;;;;;4991263;28;20183;-69
2021/01/10 09:18:08;;;;;;;20.80;11.18;;;2.20;99.20;;;;;;4989582;28;20187;-65
2021/01/10 09:20:52;;;;;;;21.20;10.50;;;2.30;97.20;;;;;;4987562;28;20179;-66
2021/01/10 09:23:19;;;;;;;17.25;10.07;;;2.30;99.50;;;;;;4988520;28;20194;-66
2021/01/10 09:25:44;;;;;;;17.70;10.45;;;2.20;97.80;;;;;;4982421;28;20191;-66
2021/01/10 09:28:18;;;;;;;22.23;11.30;;;2.20;98.10;;;;;;4980055;28;20198;-65
2021/01/10 09:30:44;;;;;;;23.40;13.30;;;2.30;97.00;;;;;;4982223;28;20198;-66
2021/01/10 09:33:10;;;;;;;19.83;11.40;;;2.30;98.30;;;;;;4982626;28;20230;-65
2021/01/10 09:35:43;;;;;;;24.35;11.77;;;2.30;99.40;;;;;;4980732;28;20244;-66
2021/01/10 09:38:10;;;;;;;22.63;11.57;;;2.30;99.40;;;;;;4979820;28;20637;-67
2021/01/10 09:40:36;;;;;;;20.40;10.13;;;2.30;99.20;;;;;;4982500;28;20227;-67
2021/01/10 09:43:01;;;;;;;19.60;10.43;;;2.40;96.30;;;;;;4980712;28;20222;-67
2021/01/10 09:45:35;;;;;;;23.40;11.07;;;2.40;96.60;;;;;;4981310;28;20503;-68
2021/01/10 09:48:03;;;;;;;22.00;10.45;;;2.40;95.00;;;;;;4980322;28;20187;-67
2021/01/10 09:50:30;;;;;;;25.63;13.48;;;2.30;95.20;;;;;;4981946;28;20277;-67
2021/01/10 09:52:56;;;;;;;22.08;12.32;;;2.40;97.00;;;;;;4981852;28;20235;-68
2021/01/10 09:55:25;;;;;;;21.97;12.00;;;2.40;94.80;;;;;;4988820;28;20265;-69
2021/01/10 09:57:51;;;;;;;20.55;11.27;;;2.40;93.40;;;;;;4990840;28;20225;-69
2021/01/10 10:00:18;;;;;;;20.80;11.07;;;2.40;90.50;;;;;;4987485;28;20182;-69
2021/01/10 10:02:44;;;;;;;21.98;12.02;;;2.40;87.10;;;;;;4990448;28;20257;-70
2021/01/10 10:05:14;;;;;;;22.13;11.27;;;2.40;85.10;;;;;;4990031;28;20243;-68
2021/01/10 10:08:01;;;;;;;19.77;11.05;;;2.50;92.60;;;;;;4989219;28;20614;-68
2021/01/10 10:10:32;;;;;;;19.02;10.98;;;2.50;92.20;;;;;;4990035;28;20337;-68
2021/01/10 10:12:58;;;;;;;18.67;11.40;;;2.50;94.60;;;;;;4989296;28;20217;-68
2021/01/10 10:15:38;;;;;;;20.20;9.90;;;2.60;93.50;;;;;;4990343;28;20179;-69
2021/01/10 10:18:05;;;;;;;20.05;11.13;;;2.70;91.50;;;;;;4980364;28;20669;-66
2021/01/10 10:20:31;;;;;;;18.67;11.43;;;2.70;90.70;;;;;;4985861;28;20187;-66
2021/01/10 10:23:09;;;;;;;20.20;12.03;;;2.70;87.80;;;;;;5002375;28;20221;-67
2021/01/10 10:25:36;;;;;;;18.67;10.68;;;2.70;86.30;;;;;;4982764;28;20476;-67
2021/01/10 10:28:02;;;;;;;20.17;11.80;;;2.80;89.10;;;;;;4988141;28;20240;-67
2021/01/10 10:30:28;;;;;;;22.10;11.87;;;2.80;87.00;;;;;;4988645;28;20204;-65
2021/01/10 10:32:55;;;;;;;18.70;11.60;;;2.80;81.60;;;;;;4984139;28;20492;-65
2021/01/10 10:35:21;;;;;;;22.00;11.50;;;2.70;82.40;;;;;;4988929;28;20180;-67
2021/01/10 10:37:48;;;;;;;21.70;10.75;;;2.70;90.20;;;;;;4987849;28;20211;-66
2021/01/10 10:40:14;;;;;;;21.13;11.48;;;2.80;90.70;;;;;;4988958;28;20637;-65
2021/01/10 10:42:40;;;;;;;18.47;10.57;;;2.80;74.30;;;;;;4987779;28;20194;-65
2021/01/10 10:45:06;;;;;;;16.13;9.37;;;2.80;65.90;;;;;;4989023;28;20454;-65
2021/01/10 10:47:32;;;;;;;20.17;10.82;;;2.90;58.40;;;;;;4987961;28;20218;-66
2021/01/10 10:49:58;;;;;;;16.65;10.82;;;2.90;55.20;;;;;;4976528;28;20609;-66
2021/01/10 10:52:24;;;;;;;15.80;9.43;;;3.00;55.00;;;;;;4988401;28;20265;-66
2021/01/10 10:54:49;;;;;;;20.80;11.40;;;3.00;50.90;;;;;;4988407;28;20578;-67
2021/01/10 10:57:15;;;;;;;16.50;10.10;;;3.20;57.50;;;;;;4988367;28;20186;-66
2021/01/10 10:59:41;;;;;;;16.13;10.10;;;3.80;54.40;;;;;;4986748;28;20806;-66
2021/01/10 11:02:10;;;;;;;13.90;10.10;;;4.40;27.10;;;;;;4987240;28;20285;-67
2021/01/10 11:04:42;;;;;;;15.73;9.18;;;5.00;1.00;;;;;;4986817;28;20496;-66
2021/01/10 11:07:09;;;;;;;16.08;10.18;;;5.40;1.00;;;;;;4984424;28;20792;-67
2021/01/10 11:09:34;;;;;;;13.73;9.75;;;5.70;1.00;;;;;;4988463;28;20195;-67
2021/01/10 11:12:00;;;;;;;15.07;9.77;;;5.80;1.00;;;;;;4988411;28;20201;-67
2021/01/10 11:14:26;;;;;;;14.37;9.93;;;6.00;1.00;;;;;;4988380;28;20233;-68
2021/01/10 11:16:52;;;;;;;14.70;9.67;;;5.90;1.00;;;;;;4988293;28;20184;-67
2021/01/10 11:19:20;;;;;;;14.82;9.75;;;5.90;1.00;;;;;;4987134;28;20188;-67
2021/01/10 11:21:48;;;;;;;15.40;10.45;;;5.80;1.00;;;;;;4986198;28;20184;-67
2021/01/10 11:24:14;;;;;;;15.25;9.82;;;5.60;1.00;;;;;;4987461;28;20237;-67
2021/01/10 11:26:42;;;;;;;16.13;9.93;;;5.50;1.00;;;;;;4986652;28;20711;-67
2021/01/10 11:29:08;;;;;;;15.55;10.70;;;6.00;1.00;;;;;;4987248;28;20185;-66
2021/01/10 11:31:35;;;;;;;14.20;10.63;;;6.40;1.00;;;;;;4987554;28;20603;-66
2021/01/10 11:34:05;;;;;;;15.03;10.07;;;6.60;1.00;;;;;;4987998;28;20988;-66
2021/01/10 11:36:32;;;;;;;14.73;10.13;;;6.90;1.00;;;;;;4989390;28;20771;-66
2021/01/10 11:38:58;;;;;;;16.13;11.30;;;7.00;1.00;;;;;;4988149;28;20540;-66
2021/01/10 11:41:24;;;;;;;16.00;10.20;;;6.90;99.90;;;;;;4986333;28;20574;-67
2021/01/10 11:43:51;;;;;;;16.17;10.80;;;6.50;99.90;;;;;;4987865;28;20213;-68
2021/01/10 11:46:18;;;;;;;15.13;10.40;;;6.40;1.00;;;;;;4978442;28;20500;-68
2021/01/10 11:48:44;;;;;;;16.60;11.13;;;6.10;1.00;;;;;;4989089;28;20490;-69
2021/01/10 11:51:11;;;;;;;13.95;9.60;;;5.60;1.00;;;;;;4988794;28;20199;-68
2021/01/10 11:53:38;;;;;;;15.15;10.15;;;5.30;1.00;;;;;;4989017;28;20204;-69
2021/01/10 11:56:04;;;;;;;13.43;10.18;;;5.10;1.00;;;;;;4988426;28;20188;-68
2021/01/10 11:58:30;;;;;;;15.20;10.50;;;4.90;1.00;;;;;;4988886;28;20512;-68
2021/01/10 12:00:56;;;;;;;14.63;9.83;;;4.80;1.00;;;;;;4988609;28;20191;-68
2021/01/10 12:03:23;;;;;;;14.02;10.10;;;4.80;1.00;;;;;;4990927;28;20215;-68
2021/01/10 12:05:49;;;;;;;15.00;10.15;;;4.60;1.00;;;;;;4992345;28;20188;-68
2021/01/10 12:08:16;;;;;;;14.80;9.57;;;4.50;1.00;;;;;;4992281;28;20583;-67
2021/01/10 12:10:42;;;;;;;16.98;10.85;;;4.50;1.00;;;;;;4992439;28;20703;-67
2021/01/10 12:13:08;;;;;;;16.65;9.68;;;4.30;1.00;;;;;;4992020;28;20250;-68
2021/01/10 12:15:35;;;;;;;12.98;9.60;;;4.20;1.00;;;;;;4990301;28;20927;-68
2021/01/10 12:18:04;;;;;;;15.07;9.43;;;4.10;1.00;;;;;;4987825;28;20974;-68
2021/01/10 12:20:31;;;;;;;14.60;10.20;;;4.20;1.00;;;;;;4992109;28;20234;-68
2021/01/10 12:22:56;;;;;;;12.50;9.45;;;4.20;1.00;;;;;;4990718;28;20187;-68
2021/01/10 12:25:22;;;;;;;13.57;8.87;;;4.30;1.00;;;;;;4992267;28;20180;-68
2021/01/10 12:27:48;;;;;;;19.20;10.30;;;4.30;1.00;;;;;;4991723;28;20195;-68
2021/01/10 12:30:15;;;;;;;16.08;9.68;;;4.20;1.00;;;;;;4992103;28;21282;-68
2021/01/10 12:32:41;;;;;;;14.95;10.38;;;4.10;1.00;;;;;;4989348;28;20286;-68
2021/01/10 12:35:12;;;;;;;14.30;9.52;;;4.10;1.00;;;;;;4991429;28;20230;-68
2021/01/10 12:37:38;;;;;;;13.80;9.23;;;4.00;1.00;;;;;;4989989;28;20192;-68
2021/01/10 12:40:06;;;;;;;15.90;8.80;;;3.90;1.00;;;;;;4984610;28;21017;-68
2021/01/10 12:42:33;;;;;;;16.13;10.25;;;3.80;1.00;;;;;;4990948;28;20192;-68
2021/01/10 12:44:59;;;;;;;17.05;10.40;;;3.60;1.00;;;;;;4990528;28;20194;-68
2021/01/10 12:47:25;;;;;;;15.00;10.38;;;3.60;1.00;;;;;;4988396;28;20239;-68